Time;durP1;ratioP1;P1;durP2;ratioP2;P2;SDS_P1;SDS_P2;PMS_P1;PMS_P2;Temp;Humidity;BMP_temperature;BMP_pressure;BME280_temperature;BME280_humidity;BME280_pressure;Samples;Min_cycle;Max_cycle;Signal;HPM_P1;HPM_P2
2023/07/17 00:00:41;;;;;;;7.97;7.30;;;;;;;;;;6261799;28;20292;-65
2023/07/17 00:03:42;;;;;;;9.40;8.20;;;;;;;;;;6253485;28;20201;-65
2023/07/17 00:06:43;;;;;;;9.20;8.40;;;;;;;;;;6255089;28;20185;-65
2023/07/17 00:09:44;;;;;;;8.87;8.10;;;;;;;;;;6252818;28;20209;-65
2023/07/17 00:12:45;;;;;;;8.97;8.17;;;;;;;;;;6254514;28;20189;-65
2023/07/17 00:15:46;;;;;;;9.53;8.73;;;;;;;;;;6278489;28;20190;-65
2023/07/17 00:18:48;;;;;;;9.07;7.90;;;;;;;;;;6247892;28;20214;-65
2023/07/17 00:21:49;;;;;;;9.17;8.40;;;;;;;;;;6264238;28;20186;-65
2023/07/17 00:24:53;;;;;;;9.13;8.33;;;;;;;;;;6285619;28;20181;-65
2023/07/17 00:27:54;;;;;;;10.10;9.20;;;;;;;;;;6249046;28;20230;-65
2023/07/17 00:30:55;;;;;;;9.87;8.93;;;;;;;;;;6246861;28;20221;-65
2023/07/17 00:33:56;;;;;;;9.80;8.90;;;;;;;;;;6256175;28;20273;-65
2023/07/17 00:36:57;;;;;;;9.70;8.83;;;;;;;;;;6237980;28;20198;-65
2023/07/17 00:39:58;;;;;;;10.13;9.10;;;;;;;;;;6254331;28;20236;-65
2023/07/17 00:43:00;;;;;;;10.27;9.37;;;;;;;;;;6255886;28;20272;-65
2023/07/17 00:46:01;;;;;;;9.97;9.00;;;;;;;;;;6268124;28;20192;-65
2023/07/17 00:49:03;;;;;;;10.07;9.07;;;;;;;;;;6238776;28;20186;-65
2023/07/17 00:52:05;;;;;;;8.87;8.03;;;;;;;;;;6251773;28;20199;-65
2023/07/17 00:55:06;;;;;;;10.30;9.50;;;;;;;;;;6248402;28;20218;-65
2023/07/17 00:58:08;;;;;;;9.53;8.67;;;;;;;;;;6268763;28;20198;-65
2023/07/17 01:01:09;;;;;;;9.53;8.67;;;;;;;;;;6234561;28;20213;-65
2023/07/17 01:04:10;;;;;;;9.87;9.07;;;;;;;;;;6251223;28;20204;-65
2023/07/17 01:07:11;;;;;;;10.43;9.13;;;;;;;;;;6253665;28;20280;-65
2023/07/17 01:10:44;;;;;;;10.77;9.37;;;;;;;;;;6246203;28;20205;-65
2023/07/17 01:13:46;;;;;;;9.73;8.83;;;;;;;;;;6269044;28;20258;-65
2023/07/17 01:16:48;;;;;;;10.73;9.83;;;;;;;;;;6248867;28;20204;-65
2023/07/17 01:19:49;;;;;;;10.63;9.73;;;;;;;;;;6265146;28;20237;-65
2023/07/17 01:22:54;;;;;;;11.13;10.03;;;;;;;;;;6259572;28;20189;-65
2023/07/17 01:25:55;;;;;;;10.77;9.77;;;;;;;;;;6251384;28;20241;-65
2023/07/17 01:28:56;;;;;;;10.30;9.43;;;;;;;;;;6264764;28;20249;-65
2023/07/17 01:31:57;;;;;;;10.30;9.27;;;;;;;;;;6251852;28;20280;-65
2023/07/17 01:34:58;;;;;;;10.17;9.37;;;;;;;;;;6260896;28;20189;-65
2023/07/17 01:37:59;;;;;;;9.80;8.90;;;;;;;;;;6246145;28;20221;-65
2023/07/17 01:41:01;;;;;;;10.53;9.73;;;;;;;;;;6262818;28;20250;-65
2023/07/17 01:44:02;;;;;;;10.60;9.70;;;;;;;;;;6256829;28;20179;-65
2023/07/17 01:47:03;;;;;;;9.93;9.03;;;;;;;;;;6252809;28;20200;-65
2023/07/17 01:50:04;;;;;;;10.83;9.73;;;;;;;;;;6253781;28;20208;-65
2023/07/17 01:53:05;;;;;;;10.37;9.27;;;;;;;;;;6257155;28;20216;-65
2023/07/17 01:56:06;;;;;;;10.93;9.87;;;;;;;;;;6247455;28;20239;-65
2023/07/17 01:59:07;;;;;;;10.60;9.67;;;;;;;;;;6251224;28;20218;-65
2023/07/17 02:02:09;;;;;;;10.40;9.40;;;;;;;;;;6250887;28;20206;-65
2023/07/17 02:05:10;;;;;;;10.60;9.70;;;;;;;;;;6251853;28;20197;-65
2023/07/17 02:08:11;;;;;;;11.53;10.40;;;;;;;;;;6238236;28;20201;-65
2023/07/17 02:11:12;;;;;;;12.80;10.53;;;;;;;;;;6249505;28;20195;-65
2023/07/17 02:14:13;;;;;;;10.60;9.73;;;;;;;;;;6282985;28;20206;-65
2023/07/17 02:17:14;;;;;;;10.77;9.87;;;;;;;;;;6273993;28;20219;-65
2023/07/17 02:20:15;;;;;;;10.60;9.50;;;;;;;;;;6264573;28;20214;-65
2023/07/17 02:23:17;;;;;;;10.87;9.63;;;;;;;;;;6268508;28;20228;-65
2023/07/17 02:26:18;;;;;;;10.20;9.30;;;;;;;;;;6264740;28;20186;-65
2023/07/17 02:29:19;;;;;;;10.67;9.77;;;;;;;;;;6257969;28;20241;-65
2023/07/17 02:32:20;;;;;;;10.63;9.73;;;;;;;;;;6241619;28;20204;-65
2023/07/17 02:35:21;;;;;;;10.90;10.10;;;;;;;;;;6280954;28;20200;-65
2023/07/17 02:38:22;;;;;;;10.57;9.47;;;;;;;;;;6246243;28;20221;-65
2023/07/17 02:41:23;;;;;;;10.37;9.27;;;;;;;;;;6262471;28;20235;-65
2023/07/17 02:44:24;;;;;;;10.27;9.43;;;;;;;;;;6250504;28;20205;-65
2023/07/17 02:47:25;;;;;;;11.07;10.00;;;;;;;;;;6254183;28;20201;-65
2023/07/17 02:50:26;;;;;;;11.60;10.40;;;;;;;;;;6266969;28;20198;-65
2023/07/17 02:53:27;;;;;;;9.87;9.17;;;;;;;;;;6288196;28;20226;-65
2023/07/17 02:56:28;;;;;;;10.77;9.77;;;;;;;;;;6254412;28;20215;-65
2023/07/17 02:59:29;;;;;;;10.57;9.63;;;;;;;;;;6253165;28;20210;-65
2023/07/17 03:02:30;;;;;;;10.87;9.87;;;;;;;;;;6257783;28;20187;-65
2023/07/17 03:05:34;;;;;;;10.67;9.77;;;;;;;;;;6237079;28;20193;-65
2023/07/17 03:08:35;;;;;;;10.53;9.63;;;;;;;;;;6263626;28;20190;-65
2023/07/17 03:11:36;;;;;;;11.60;10.50;;;;;;;;;;6256667;28;20201;-65
2023/07/17 03:14:37;;;;;;;10.63;9.40;;;;;;;;;;6264266;28;20198;-65
2023/07/17 03:17:38;;;;;;;10.13;9.23;;;;;;;;;;6252691;28;20240;-65
2023/07/17 03:20:44;;;;;;;11.57;10.47;;;;;;;;;;6265806;28;20254;-65
2023/07/17 03:23:45;;;;;;;11.30;10.30;;;;;;;;;;6270073;28;20186;-65
2023/07/17 03:26:46;;;;;;;10.63;9.73;;;;;;;;;;6258135;28;20200;-65
2023/07/17 03:29:47;;;;;;;11.63;10.57;;;;;;;;;;6215238;28;1151467;-65
2023/07/17 03:32:48;;;;;;;11.70;10.50;;;;;;;;;;6255239;28;20197;-65
2023/07/17 03:35:49;;;;;;;12.13;11.00;;;;;;;;;;6247066;28;20195;-65
2023/07/17 03:38:51;;;;;;;13.30;10.97;;;;;;;;;;6260509;28;20214;-65
2023/07/17 03:41:52;;;;;;;12.27;11.17;;;;;;;;;;6264980;28;20193;-65
2023/07/17 03:44:53;;;;;;;11.27;10.27;;;;;;;;;;6251838;28;20193;-65
2023/07/17 03:47:54;;;;;;;11.97;10.97;;;;;;;;;;6251972;28;20452;-65
2023/07/17 03:50:55;;;;;;;12.60;11.40;;;;;;;;;;6267818;28;20198;-65
2023/07/17 03:53:56;;;;;;;12.00;10.83;;;;;;;;;;6280065;28;20251;-65
2023/07/17 03:56:57;;;;;;;12.27;11.13;;;;;;;;;;6270697;28;20252;-65
2023/07/17 03:59:58;;;;;;;12.03;10.90;;;;;;;;;;6248609;28;20222;-65
2023/07/17 04:02:59;;;;;;;13.47;12.37;;;;;;;;;;6276703;28;20214;-68
2023/07/17 04:06:00;;;;;;;12.60;11.47;;;;;;;;;;6259195;28;20190;-69
2023/07/17 04:09:01;;;;;;;12.20;11.10;;;;;;;;;;6237776;28;20206;-69
2023/07/17 04:12:03;;;;;;;12.13;10.93;;;;;;;;;;6267749;28;20187;-69
2023/07/17 04:15:04;;;;;;;12.63;11.53;;;;;;;;;;6244278;28;20195;-68
2023/07/17 04:18:05;;;;;;;12.23;11.03;;;;;;;;;;6283232;28;20190;-69
2023/07/17 04:21:07;;;;;;;11.80;10.70;;;;;;;;;;6270119;28;20226;-69
2023/07/17 04:24:08;;;;;;;12.33;11.30;;;;;;;;;;6251416;28;20224;-70
2023/07/17 04:27:09;;;;;;;12.53;11.33;;;;;;;;;;6246766;28;20198;-70
2023/07/17 04:30:10;;;;;;;12.80;11.40;;;;;;;;;;6244232;28;20206;-69
2023/07/17 04:33:11;;;;;;;12.20;11.03;;;;;;;;;;6285813;28;20194;-69
2023/07/17 04:36:12;;;;;;;11.77;10.67;;;;;;;;;;6259773;28;20193;-68
2023/07/17 04:39:13;;;;;;;12.10;11.03;;;;;;;;;;6249736;28;20226;-68
2023/07/17 04:42:15;;;;;;;13.37;12.07;;;;;;;;;;6249133;28;20216;-68
2023/07/17 04:45:19;;;;;;;12.83;11.63;;;;;;;;;;6249731;28;20190;-68
2023/07/17 04:48:20;;;;;;;13.87;12.33;;;;;;;;;;6245426;28;20236;-68
2023/07/17 04:51:21;;;;;;;12.60;11.50;;;;;;;;;;6261737;28;20228;-69
2023/07/17 04:54:22;;;;;;;12.67;11.50;;;;;;;;;;6251667;28;20192;-68
2023/07/17 04:57:23;;;;;;;12.50;11.50;;;;;;;;;;6250943;28;20179;-68
2023/07/17 05:00:24;;;;;;;12.40;11.40;;;;;;;;;;6267671;28;20240;-69
2023/07/17 05:03:27;;;;;;;12.63;11.63;;;;;;;;;;6254838;28;20248;-69
2023/07/17 05:06:29;;;;;;;12.77;11.57;;;;;;;;;;6248396;28;20205;-69
2023/07/17 05:09:30;;;;;;;12.63;11.53;;;;;;;;;;6288645;28;20216;-68
2023/07/17 05:12:31;;;;;;;14.03;12.57;;;;;;;;;;6269016;28;20185;-68
2023/07/17 05:15:32;;;;;;;13.20;12.00;;;;;;;;;;6280728;28;20204;-71
2023/07/17 05:18:33;;;;;;;14.00;12.70;;;;;;;;;;6257080;28;20264;-67
2023/07/17 05:21:34;;;;;;;12.67;11.53;;;;;;;;;;6266473;28;20196;-68
2023/07/17 05:24:35;;;;;;;12.97;11.97;;;;;;;;;;6270680;28;20194;-68
2023/07/17 05:27:36;;;;;;;14.13;12.63;;;;;;;;;;6243932;28;20234;-68
2023/07/17 05:30:37;;;;;;;13.77;12.57;;;;;;;;;;6232744;28;20193;-62
2023/07/17 05:33:38;;;;;;;13.90;12.60;;;;;;;;;;6266271;28;20198;-63
2023/07/17 05:36:39;;;;;;;13.50;12.40;;;;;;;;;;6274472;28;20197;-62
2023/07/17 05:39:40;;;;;;;14.30;13.20;;;;;;;;;;6253699;28;20220;-63
2023/07/17 05:42:41;;;;;;;14.17;12.73;;;;;;;;;;6251210;28;20195;-63
2023/07/17 05:45:42;;;;;;;13.63;12.53;;;;;;;;;;6271703;28;20216;-62
2023/07/17 05:48:43;;;;;;;13.67;12.57;;;;;;;;;;6256538;28;20217;-63
2023/07/17 05:51:44;;;;;;;14.50;13.20;;;;;;;;;;6243290;28;20210;-62
2023/07/17 05:54:45;;;;;;;13.73;12.53;;;;;;;;;;6279939;28;20201;-69
2023/07/17 05:57:46;;;;;;;13.00;11.97;;;;;;;;;;6248272;28;20191;-69
2023/07/17 06:00:47;;;;;;;13.57;12.47;;;;;;;;;;6246827;28;20219;-68
2023/07/17 06:03:48;;;;;;;13.70;12.50;;;;;;;;;;6255437;28;20247;-69
2023/07/17 06:06:49;;;;;;;13.00;11.90;;;;;;;;;;6257270;28;20236;-69
2023/07/17 06:09:50;;;;;;;13.27;12.27;;;;;;;;;;6245887;28;20190;-70
2023/07/17 06:12:52;;;;;;;13.70;12.50;;;;;;;;;;6253467;28;20202;-69
2023/07/17 06:15:53;;;;;;;13.80;12.40;;;;;;;;;;6252865;28;20190;-69
2023/07/17 06:18:54;;;;;;;13.70;12.60;;;;;;;;;;6259219;28;20221;-69
2023/07/17 06:21:55;;;;;;;14.13;13.03;;;;;;;;;;6251447;28;20202;-70
2023/07/17 06:24:56;;;;;;;14.83;13.33;;;;;;;;;;6252011;28;20189;-70
2023/07/17 06:27:57;;;;;;;12.97;11.87;;;;;;;;;;6250337;28;20284;-70
2023/07/17 06:30:58;;;;;;;13.73;12.63;;;;;;;;;;6249835;28;20209;-70
2023/07/17 06:33:59;;;;;;;14.87;13.27;;;;;;;;;;6242012;28;20186;-70
2023/07/17 06:37:01;;;;;;;14.40;13.20;;;;;;;;;;6256461;28;20252;-70
2023/07/17 06:40:04;;;;;;;13.40;12.27;;;;;;;;;;6251316;28;20271;-70
2023/07/17 06:43:05;;;;;;;13.77;12.47;;;;;;;;;;6248836;28;20198;-70
2023/07/17 06:46:06;;;;;;;16.40;12.87;;;;;;;;;;6255710;28;20197;-70
2023/07/17 06:49:07;;;;;;;14.00;12.87;;;;;;;;;;6263675;28;20186;-70
2023/07/17 06:52:08;;;;;;;13.80;12.70;;;;;;;;;;6270327;28;20194;-70
2023/07/17 06:55:10;;;;;;;14.57;12.90;;;;;;;;;;6254535;28;20182;-70
2023/07/17 06:58:11;;;;;;;13.47;12.37;;;;;;;;;;6265858;28;20205;-70
2023/07/17 07:01:14;;;;;;;14.27;12.97;;;;;;;;;;6244173;28;20214;-70
2023/07/17 07:04:15;;;;;;;13.83;12.60;;;;;;;;;;6248106;28;20219;-70
2023/07/17 07:07:16;;;;;;;13.60;12.40;;;;;;;;;;6284147;28;20216;-70
2023/07/17 07:10:17;;;;;;;13.47;12.33;;;;;;;;;;6255798;28;20221;-70
2023/07/17 07:13:19;;;;;;;14.17;13.00;;;;;;;;;;6252636;28;20197;-70
2023/07/17 07:16:20;;;;;;;13.70;12.50;;;;;;;;;;6248389;28;20297;-70
2023/07/17 07:19:21;;;;;;;15.47;12.67;;;;;;;;;;6256696;28;20210;-70
2023/07/17 07:22:22;;;;;;;13.23;12.13;;;;;;;;;;6271797;28;20189;-70
2023/07/17 07:25:23;;;;;;;14.40;13.10;;;;;;;;;;6241993;28;20206;-70
2023/07/17 07:28:24;;;;;;;13.80;12.43;;;;;;;;;;6258469;28;20240;-70
2023/07/17 07:31:26;;;;;;;14.33;13.03;;;;;;;;;;6270028;28;20194;-70
2023/07/17 07:34:27;;;;;;;13.97;12.77;;;;;;;;;;6267013;28;20189;-70
2023/07/17 07:37:28;;;;;;;14.97;13.77;;;;;;;;;;6250354;28;20195;-70
2023/07/17 07:40:29;;;;;;;13.63;12.50;;;;;;;;;;6244572;28;20214;-69
2023/07/17 07:43:30;;;;;;;13.50;12.37;;;;;;;;;;6243294;28;20195;-69
2023/07/17 07:46:31;;;;;;;12.70;11.70;;;;;;;;;;6272975;28;20301;-68
2023/07/17 07:49:32;;;;;;;12.10;11.00;;;;;;;;;;6247695;28;20194;-69
2023/07/17 07:52:33;;;;;;;12.47;11.27;;;;;;;;;;6254541;28;20193;-71
2023/07/17 07:55:34;;;;;;;13.27;12.07;;;;;;;;;;6249945;28;20212;-69
2023/07/17 07:58:35;;;;;;;12.90;11.80;;;;;;;;;;6272883;28;20205;-70
2023/07/17 08:01:36;;;;;;;12.63;11.63;;;;;;;;;;6251800;28;20221;-70
2023/07/17 08:04:37;;;;;;;12.23;11.23;;;;;;;;;;6260965;28;20189;-70
2023/07/17 08:07:38;;;;;;;12.13;11.07;;;;;;;;;;6253691;28;20222;-70
2023/07/17 08:10:39;;;;;;;11.73;10.60;;;;;;;;;;6267770;28;20186;-70
2023/07/17 08:13:40;;;;;;;11.97;10.97;;;;;;;;;;6265228;28;20628;-70
2023/07/17 08:16:41;;;;;;;13.23;12.03;;;;;;;;;;6264152;28;20204;-70
2023/07/17 08:19:42;;;;;;;11.43;10.63;;;;;;;;;;6243419;28;20304;-70
2023/07/17 08:22:44;;;;;;;11.07;10.23;;;;;;;;;;6279625;28;20203;-71
2023/07/17 08:25:45;;;;;;;10.43;9.63;;;;;;;;;;6253676;28;20190;-68
2023/07/17 08:28:46;;;;;;;12.47;11.37;;;;;;;;;;6277045;28;20268;-69
2023/07/17 08:31:47;;;;;;;11.30;10.10;;;;;;;;;;6237865;28;20193;-67
2023/07/17 08:34:48;;;;;;;12.20;11.17;;;;;;;;;;6257220;28;20185;-67
2023/07/17 08:37:49;;;;;;;11.37;10.47;;;;;;;;;;6267321;28;20185;-67
2023/07/17 08:40:52;;;;;;;9.33;8.43;;;;;;;;;;6246617;28;20230;-67
2023/07/17 08:43:53;;;;;;;9.80;8.90;;;;;;;;;;6258400;28;20198;-67
2023/07/17 08:46:55;;;;;;;11.50;10.50;;;;;;;;;;6251566;28;20197;-67
2023/07/17 08:49:58;;;;;;;10.87;9.90;;;;;;;;;;6251699;28;20272;-67
2023/07/17 08:52:59;;;;;;;10.53;9.63;;;;;;;;;;6256184;28;20190;-68
2023/07/17 08:56:00;;;;;;;11.00;10.00;;;;;;;;;;6245187;28;20201;-68
2023/07/17 08:59:01;;;;;;;11.20;10.20;;;;;;;;;;6240591;28;20213;-68
2023/07/17 09:02:03;;;;;;;10.70;9.67;;;;;;;;;;6286473;28;20213;-68
2023/07/17 09:05:05;;;;;;;10.67;9.87;;;;;;;;;;6246733;28;20196;-68
2023/07/17 09:08:06;;;;;;;10.93;9.93;;;;;;;;;;6242514;28;20241;-68
2023/07/17 09:11:08;;;;;;;10.63;9.67;;;;;;;;;;6249825;28;20193;-69
2023/07/17 09:14:10;;;;;;;11.37;10.40;;;;;;;;;;6265796;28;20273;-69
2023/07/17 09:17:11;;;;;;;11.00;10.00;;;;;;;;;;6279818;28;20186;-68
2023/07/17 09:20:13;;;;;;;11.40;10.50;;;;;;;;;;6264086;28;20205;-70
2023/07/17 09:23:14;;;;;;;12.27;11.00;;;;;;;;;;6254754;28;20190;-69
2023/07/17 09:26:15;;;;;;;10.83;9.93;;;;;;;;;;6266707;28;20186;-70
2023/07/17 09:29:22;;;;;;;11.07;10.07;;;;;;;;;;6258299;28;20237;-70
2023/07/17 09:32:24;;;;;;;10.37;9.57;;;;;;;;;;6258622;28;20196;-68
2023/07/17 09:35:25;;;;;;;11.27;10.17;;;;;;;;;;6240695;28;20199;-69
2023/07/17 09:38:26;;;;;;;10.70;9.70;;;;;;;;;;6281118;28;20205;-68
2023/07/17 09:41:28;;;;;;;10.10;9.30;;;;;;;;;;6244464;28;20221;-67
2023/07/17 09:44:29;;;;;;;10.53;9.73;;;;;;;;;;6252792;28;20190;-67
2023/07/17 09:47:34;;;;;;;11.30;10.40;;;;;;;;;;6252978;28;20217;-67
2023/07/17 09:50:35;;;;;;;10.50;9.70;;;;;;;;;;6255395;28;20202;-67
2023/07/17 09:53:36;;;;;;;10.83;9.87;;;;;;;;;;6252234;28;20199;-67
2023/07/17 09:56:38;;;;;;;11.63;10.37;;;;;;;;;;6249463;28;20197;-68
2023/07/17 09:59:42;;;;;;;10.83;9.83;;;;;;;;;;6277333;28;20268;-68
2023/07/17 10:03:05;;;;;;;13.97;11.83;;;;;;;;;;6255136;28;20227;-69
2023/07/17 10:06:06;;;;;;;11.23;10.20;;;;;;;;;;6253443;28;20202;-68
2023/07/17 10:09:09;;;;;;;11.07;10.07;;;;;;;;;;6245550;28;20218;-68
2023/07/17 10:12:12;;;;;;;10.23;9.33;;;;;;;;;;6251434;28;20224;-68
2023/07/17 10:15:15;;;;;;;10.37;9.40;;;;;;;;;;6269806;28;20195;-68
2023/07/17 10:18:16;;;;;;;10.70;9.90;;;;;;;;;;6258461;28;20213;-68
2023/07/17 10:21:18;;;;;;;12.77;10.17;;;;;;;;;;6249011;28;20224;-68
2023/07/17 10:24:22;;;;;;;10.13;9.23;;;;;;;;;;6256179;28;20186;-67
2023/07/17 10:27:38;;;;;;;10.30;9.50;;;;;;;;;;6270044;28;20284;-67
2023/07/17 10:30:39;;;;;;;9.87;9.07;;;;;;;;;;6263818;28;20190;-67
2023/07/17 10:33:40;;;;;;;11.03;10.03;;;;;;;;;;6245686;28;20198;-67
2023/07/17 10:36:45;;;;;;;10.63;9.83;;;;;;;;;;6252418;28;20252;-67
2023/07/17 10:39:46;;;;;;;10.73;9.83;;;;;;;;;;6273432;28;20305;-67
2023/07/17 10:42:48;;;;;;;10.90;10.00;;;;;;;;;;6256179;28;20220;-67
2023/07/17 10:45:49;;;;;;;11.23;10.23;;;;;;;;;;6262595;28;20187;-67
2023/07/17 10:48:50;;;;;;;11.57;10.47;;;;;;;;;;6276590;28;20189;-67
2023/07/17 10:51:51;;;;;;;10.90;10.00;;;;;;;;;;6257181;28;20278;-67
2023/07/17 10:54:52;;;;;;;11.10;10.00;;;;;;;;;;6280776;28;20192;-68
2023/07/17 10:57:54;;;;;;;10.77;9.83;;;;;;;;;;6250771;28;20226;-68
2023/07/17 11:00:55;;;;;;;10.63;9.67;;;;;;;;;;6270448;28;20300;-68
2023/07/17 11:03:56;;;;;;;10.53;9.63;;;;;;;;;;6246221;28;20286;-68
2023/07/17 11:07:06;;;;;;;10.73;9.83;;;;;;;;;;6244249;28;20193;-68
2023/07/17 11:10:11;;;;;;;10.57;9.77;;;;;;;;;;6261203;28;20289;-68
2023/07/17 11:13:12;;;;;;;24.20;16.20;;;;;;;;;;6266846;28;20182;-68
2023/07/17 11:16:13;;;;;;;21.50;16.70;;;;;;;;;;6255393;28;20194;-68
2023/07/17 11:19:14;;;;;;;27.47;15.80;;;;;;;;;;6266208;28;20202;-68
2023/07/17 11:22:15;;;;;;;23.97;17.00;;;;;;;;;;6254410;28;20204;-69
2023/07/17 11:25:16;;;;;;;17.73;15.93;;;;;;;;;;6277335;28;20268;-67
2023/07/17 11:28:18;;;;;;;22.73;17.93;;;;;;;;;;6260408;28;20236;-67
2023/07/17 11:31:30;;;;;;;22.17;19.97;;;;;;;;;;6282593;28;20196;-67
2023/07/17 11:34:31;;;;;;;21.10;19.40;;;;;;;;;;6255432;28;20191;-67
2023/07/17 11:37:34;;;;;;;20.57;18.67;;;;;;;;;;6269746;28;20206;-67
2023/07/17 11:40:54;;;;;;;17.33;15.50;;;;;;;;;;6249620;28;20234;-67
2023/07/17 11:43:56;;;;;;;9.57;8.33;;;;;;;;;;6260667;28;20179;-67
2023/07/17 11:46:59;;;;;;;9.03;8.23;;;;;;;;;;6262039;28;20193;-67
2023/07/17 11:50:01;;;;;;;10.73;9.83;;;;;;;;;;6253451;28;20202;-68
2023/07/17 11:53:06;;;;;;;11.47;8.63;;;;;;;;;;6275513;28;20281;-67
2023/07/17 11:56:07;;;;;;;10.03;9.23;;;;;;;;;;6261415;28;20196;-67
2023/07/17 11:59:28;;;;;;;11.90;10.00;;;;;;;;;;6262411;28;20220;-67
2023/07/17 12:02:30;;;;;;;10.80;9.70;;;;;;;;;;6264197;28;20221;-67
2023/07/17 12:05:31;;;;;;;11.23;10.23;;;;;;;;;;6247284;28;20190;-67
2023/07/17 12:08:32;;;;;;;10.70;9.77;;;;;;;;;;6236986;28;20209;-68
2023/07/17 12:11:33;;;;;;;11.50;10.50;;;;;;;;;;6249197;28;20189;-68
2023/07/17 12:14:34;;;;;;;12.43;11.13;;;;;;;;;;6255861;28;20236;-67
2023/07/17 12:17:35;;;;;;;8.10;7.30;;;;;;;;;;6272721;28;20197;-67
2023/07/17 12:20:36;;;;;;;6.20;5.60;;;;;;;;;;6244848;28;20230;-67
2023/07/17 12:23:37;;;;;;;8.00;7.30;;;;;;;;;;6265969;28;20228;-67
2023/07/17 12:26:38;;;;;;;10.13;8.47;;;;;;;;;;6258734;28;20199;-67
2023/07/17 12:29:39;;;;;;;7.33;5.63;;;;;;;;;;6266946;28;20243;-67
2023/07/17 12:32:41;;;;;;;5.77;5.27;;;;;;;;;;6245612;28;20194;-67
2023/07/17 12:35:42;;;;;;;6.10;5.60;;;;;;;;;;6258002;28;20262;-67
2023/07/17 12:38:43;;;;;;;5.73;5.23;;;;;;;;;;6233845;28;20280;-67
2023/07/17 12:41:44;;;;;;;5.70;5.10;;;;;;;;;;6251866;28;20224;-67
2023/07/17 12:44:45;;;;;;;4.50;4.10;;;;;;;;;;6248953;28;20193;-67
2023/07/17 12:47:46;;;;;;;4.87;4.37;;;;;;;;;;6249244;28;20198;-67
2023/07/17 12:50:47;;;;;;;5.87;5.30;;;;;;;;;;6254039;28;20205;-67
2023/07/17 12:53:48;;;;;;;5.07;4.63;;;;;;;;;;6249944;28;20198;-67
2023/07/17 12:56:49;;;;;;;5.30;4.80;;;;;;;;;;6244663;28;20202;-67
2023/07/17 12:59:51;;;;;;;7.43;5.20;;;;;;;;;;6242784;28;20211;-68
2023/07/17 13:02:52;;;;;;;5.50;5.00;;;;;;;;;;6248129;28;20289;-68
2023/07/17 13:05:53;;;;;;;5.27;4.87;;;;;;;;;;6261766;28;20244;-67
2023/07/17 13:08:54;;;;;;;7.07;6.00;;;;;;;;;;6243346;28;20185;-67
2023/07/17 13:11:55;;;;;;;6.97;6.30;;;;;;;;;;6245133;28;20198;-68
2023/07/17 13:14:56;;;;;;;5.50;5.10;;;;;;;;;;6269337;28;20190;-67
2023/07/17 13:17:57;;;;;;;4.70;4.30;;;;;;;;;;6262381;28;20183;-67
2023/07/17 13:20:58;;;;;;;4.10;3.80;;;;;;;;;;6242716;28;20218;-68
2023/07/17 13:24:00;;;;;;;4.57;4.17;;;;;;;;;;6248612;28;20248;-68
2023/07/17 13:27:01;;;;;;;4.40;4.10;;;;;;;;;;6259588;28;20190;-68
2023/07/17 13:30:02;;;;;;;4.00;3.70;;;;;;;;;;6244050;28;20212;-68
2023/07/17 13:33:03;;;;;;;3.80;3.50;;;;;;;;;;6245088;28;20191;-67
2023/07/17 13:36:04;;;;;;;4.27;3.73;;;;;;;;;;6256176;28;20190;-67
2023/07/17 13:39:05;;;;;;;4.10;3.70;;;;;;;;;;6253567;28;20199;-67
2023/07/17 13:42:06;;;;;;;3.90;3.60;;;;;;;;;;6247751;28;20185;-67
2023/07/17 13:45:08;;;;;;;4.50;4.20;;;;;;;;;;6249364;28;20200;-67
2023/07/17 13:48:09;;;;;;;4.10;3.70;;;;;;;;;;6248750;28;20220;-67
2023/07/17 13:51:10;;;;;;;4.37;3.97;;;;;;;;;;6268808;28;20195;-67
2023/07/17 13:54:11;;;;;;;4.33;4.03;;;;;;;;;;6282043;28;20190;-68
2023/07/17 13:57:12;;;;;;;4.57;4.23;;;;;;;;;;6250527;28;20197;-67
2023/07/17 14:00:13;;;;;;;5.00;4.20;;;;;;;;;;6251158;28;20283;-66
2023/07/17 14:03:14;;;;;;;4.30;4.00;;;;;;;;;;6242803;28;20227;-66
2023/07/17 14:06:15;;;;;;;4.47;4.17;;;;;;;;;;6252808;28;20194;-67
2023/07/17 14:09:16;;;;;;;5.30;4.30;;;;;;;;;;6266415;28;20240;-67
2023/07/17 14:12:18;;;;;;;4.53;4.23;;;;;;;;;;6273771;28;20250;-67
2023/07/17 14:15:19;;;;;;;4.80;4.30;;;;;;;;;;6252193;28;20239;-67
2023/07/17 14:18:20;;;;;;;4.67;4.33;;;;;;;;;;6269355;28;20198;-66
2023/07/17 14:21:21;;;;;;;4.80;4.40;;;;;;;;;;6272839;28;20232;-66
2023/07/17 14:24:23;;;;;;;4.27;3.87;;;;;;;;;;6247842;28;20193;-66
2023/07/17 14:27:24;;;;;;;6.40;4.53;;;;;;;;;;6272726;28;20230;-66
2023/07/17 14:30:25;;;;;;;5.03;4.60;;;;;;;;;;6247070;28;20198;-68
2023/07/17 14:33:26;;;;;;;4.20;3.90;;;;;;;;;;6243516;28;20209;-68
2023/07/17 14:36:27;;;;;;;5.67;5.00;;;;;;;;;;6271255;28;20195;-67
2023/07/17 14:39:28;;;;;;;5.23;4.73;;;;;;;;;;6254893;28;20227;-68
2023/07/17 14:42:29;;;;;;;7.00;5.00;;;;;;;;;;6255164;28;20190;-67
2023/07/17 14:45:30;;;;;;;4.57;4.17;;;;;;;;;;6252170;28;20195;-67
2023/07/17 14:48:31;;;;;;;5.10;4.43;;;;;;;;;;6252872;28;20268;-68
2023/07/17 14:51:32;;;;;;;5.10;4.70;;;;;;;;;;6266184;28;20240;-67
2023/07/17 14:54:33;;;;;;;4.77;4.37;;;;;;;;;;6249837;28;20280;-67
2023/07/17 14:57:34;;;;;;;6.60;5.07;;;;;;;;;;6243996;28;20289;-67
2023/07/17 15:00:35;;;;;;;4.70;4.40;;;;;;;;;;6243890;28;20253;-67
2023/07/17 15:03:36;;;;;;;5.30;4.80;;;;;;;;;;6255183;28;20218;-67
2023/07/17 15:06:38;;;;;;;6.40;4.43;;;;;;;;;;6254287;28;20205;-66
2023/07/17 15:09:39;;;;;;;5.20;4.70;;;;;;;;;;6255655;28;20194;-66
2023/07/17 15:12:40;;;;;;;5.13;4.70;;;;;;;;;;6251745;28;20194;-66
2023/07/17 15:15:40;;;;;;;4.63;4.33;;;26.00;86.60;;;;;;6275336;28;20193;-66
2023/07/17 15:18:41;;;;;;;5.83;4.90;;;28.30;77.20;;;;;;6266426;28;20191;-66
2023/07/17 15:21:42;;;;;;;5.47;4.97;;;28.30;79.10;;;;;;6251833;28;20228;-66
2023/07/17 15:24:42;;;;;;;5.03;4.57;;;28.30;78.20;;;;;;6243062;28;20189;-66
2023/07/17 15:27:43;;;;;;;5.03;4.67;;;28.30;77.00;;;;;;6264655;28;20270;-67
2023/07/17 15:30:44;;;;;;;5.13;4.73;;;;;;;;;;6250378;28;20198;-67
2023/07/17 15:33:45;;;;;;;5.10;4.70;;;;;;;;;;6247587;28;20198;-67
2023/07/17 15:36:46;;;;;;;5.27;4.77;;;;;;;;;;6257192;28;20296;-67
2023/07/17 15:39:47;;;;;;;5.80;5.30;;;;;;;;;;6261204;28;20241;-67
2023/07/17 15:42:49;;;;;;;5.10;4.60;;;28.30;79.00;;;;;;6250456;28;20194;-67
2023/07/17 15:45:49;;;;;;;5.13;4.73;;;28.50;75.40;;;;;;6247973;28;20256;-67
2023/07/17 15:48:50;;;;;;;5.43;4.93;;;28.50;73.30;;;;;;6260361;28;20195;-67
2023/07/17 15:51:51;;;;;;;5.77;5.27;;;28.40;74.30;;;;;;6263409;28;20198;-67
2023/07/17 15:54:52;;;;;;;5.27;4.87;;;28.30;74.70;;;;;;6249485;28;20197;-67
2023/07/17 15:57:52;;;;;;;5.33;4.83;;;28.30;75.10;;;;;;6261890;28;20222;-67
2023/07/17 16:00:53;;;;;;;5.17;4.67;;;;;;;;;;6249750;28;20249;-67
2023/07/17 16:03:54;;;;;;;5.00;4.60;;;;;;;;;;6253616;28;20186;-67
2023/07/17 16:06:55;;;;;;;5.27;4.87;;;;;;;;;;6273289;28;20296;-68
2023/07/17 16:09:57;;;;;;;5.47;5.07;;;;;;;;;;6266425;28;20194;-68
2023/07/17 16:12:58;;;;;;;4.87;4.57;;;;;;;;;;6242285;28;20190;-67
2023/07/17 16:15:59;;;;;;;4.70;4.30;;;;;;;;;;6257851;28;20222;-68
2023/07/17 16:19:00;;;;;;;5.20;4.80;;;;;;;;;;6257707;28;20193;-68
2023/07/17 16:22:01;;;;;;;5.33;4.93;;;;;;;;;;6254678;28;20205;-68
2023/07/17 16:25:02;;;;;;;4.97;4.67;;;;;;;;;;6259615;28;20201;-68
2023/07/17 16:28:06;;;;;;;6.07;5.47;;;;;;;;;;6243160;28;20236;-67
2023/07/17 16:31:07;;;;;;;5.30;4.83;;;;;;;;;;6250779;28;20218;-67
2023/07/17 16:34:08;;;;;;;6.87;5.50;;;;;;;;;;6248394;28;20206;-67
2023/07/17 16:37:09;;;;;;;6.00;5.33;;;;;;;;;;6244622;28;20213;-67
2023/07/17 16:40:10;;;;;;;7.07;5.17;;;;;;;;;;6238978;28;20244;-66
2023/07/17 16:43:12;;;;;;;5.43;4.93;;;;;;;;;;6241172;28;20183;-65
2023/07/17 16:46:13;;;;;;;5.40;5.00;;;;;;;;;;6276120;28;20197;-64
2023/07/17 16:49:14;;;;;;;5.90;5.30;;;;;;;;;;6246311;28;20194;-64
2023/07/17 16:52:16;;;;;;;5.63;5.23;;;;;;;;;;6262375;28;20181;-66
2023/07/17 16:55:17;;;;;;;7.53;5.17;;;;;;;;;;6239203;28;20584;-64
2023/07/17 16:58:18;;;;;;;5.20;4.80;;;;;;;;;;6240004;28;20213;-64
2023/07/17 17:01:20;;;;;;;6.07;5.23;;;;;;;;;;6256695;28;20259;-64
2023/07/17 17:04:21;;;;;;;6.13;5.63;;;;;;;;;;6249727;28;20305;-63
2023/07/17 17:07:22;;;;;;;5.27;4.77;;;;;;;;;;6255896;28;20189;-63
2023/07/17 17:10:24;;;;;;;5.50;5.10;;;;;;;;;;6251196;28;20221;-67
2023/07/17 17:13:25;;;;;;;5.80;5.27;;;;;;;;;;6276504;28;20203;-63
2023/07/17 17:16:26;;;;;;;5.43;4.90;;;;;;;;;;6238989;28;20232;-67
2023/07/17 17:19:27;;;;;;;5.73;5.10;;;;;;;;;;6252458;28;20213;-62
2023/07/17 17:22:28;;;;;;;5.57;5.10;;;;;;;;;;6247522;28;20413;-63
2023/07/17 17:25:29;;;;;;;5.63;5.10;;;;;;;;;;6244562;28;20201;-63
2023/07/17 17:28:30;;;;;;;6.20;5.60;;;;;;;;;;6248330;28;20317;-64
2023/07/17 17:31:31;;;;;;;5.80;5.30;;;;;;;;;;6248534;28;20205;-65
2023/07/17 17:34:32;;;;;;;5.73;5.17;;;;;;;;;;6248643;28;20194;-69
2023/07/17 17:37:34;;;;;;;6.40;5.90;;;;;;;;;;6251541;28;20198;-68
2023/07/17 17:40:35;;;;;;;6.77;5.73;;;;;;;;;;6254800;28;20217;-64
2023/07/17 17:43:36;;;;;;;6.03;5.53;;;;;;;;;;6250856;28;20187;-63
2023/07/17 17:46:38;;;;;;;5.73;5.23;;;;;;;;;;6242198;28;20193;-65